Wind From: 24-01-2018 04:00 Until: 25-01-2018 04:00 warning for: Wind Level: Yellow info button
english:
Northerly gale force (8B) winds are expected to prevail.





.

Ελληνικά:
Θυελλώδεις (8 μποφορ) βόρειοι άνεμοι αναμένονται. 

Kopaida air sports center. The private airport (CTAF) Kopaida (ZZZZ) located near Athens southwest of Castle village in Voiotia,
just one hour from leaving the National Road Athens - Lamia of Kifissia. The exact location of the airport is N 38 ° 27.41 'and E 023 ° 08.18'.



Kopaida NW more information Kopaida NW


Agios Dimitrios more information Agios Dimitrios


Kopaida live view NE

Athens SkydiveBecome a Skydiver

Spot fly AviationSpot Flight Academy



Nearby METAR Reports

   
LGTG - Tanagra
Updated: 24-01-2018 10:50
Mostly Cloudy  
Mostly Cloudy  
   Wind: NE 7.4 km/h
Wind: NE 7.4 km/h
Temperature: 6°C
Wind Chill: 4°C
Dew Point: -2°C
Humidity: 57%
Barometer: 1028 hPa
Clouds: Mostly Cloudy
Visibility: More than 10 km
Cloud details: Few Clouds 2000 ft,
Mostly Cloudy 3000 ft
LGTG 240850Z 04004KT 9999 FEW020 BKN030 06/M02 Q1028 RMK BKN080 BLU
LGBL - Anchialos
Updated: 24-01-2018 11:20
Light Rain, Overcast  
Light Rain, Overcast  
   Wind: Calm
Wind: Calm
Temperature: 5°C
Dew Point: 4°C
Humidity: 93%
Barometer: 1031 hPa
Clouds: Overcast
Visibility: 7 km
Cloud details: Partly Cloudy 1200 ft,
Overcast 2000 ft
LGBL 240920Z 00000KT 7000 -RA SCT012 OVC020 05/04 Q1031
LGKR - Corfu
Updated: 24-01-2018 11:20
Few Clouds  
Few Clouds  
   Wind: ESE 13 km/h
Wind: ESE 13 km/h
Temperature: 12°C
Dew Point: 1°C
Humidity: 47%
Barometer: 1027 hPa
Clouds: Few Clouds
Visibility: More than 10 km
Cloud details: Few Clouds 3000 ft
LGKR 240920Z 12007KT 9999 FEW030 12/01 Q1027 NOSIG
LGAV - Eleftherios Venizelos
Updated: 24-01-2018 11:20
Mostly Cloudy  
Mostly Cloudy  
   Wind: North 44.4 km/h
Wind: North 44.4 km/h
Temperature: 7°C
Wind Chill: 2°C
Dew Point: -3°C
Humidity: 49%
Barometer: 1027 hPa
Clouds: Mostly Cloudy
Visibility: More than 10 km
Cloud details: Few Clouds 2000 ft,
Mostly Cloudy 3000 ft
LGAV 240920Z 01024KT 9999 FEW020 BKN030 07/M03 Q1027 NOSIG
LGMT - Mytilene
Updated: 24-01-2018 11:20
Partly Cloudy  
Partly Cloudy  
   Wind: North 31.5 km/h
Wind: North 31.5 km/h
Temperature: 7°C
Wind Chill: 3°C
Dew Point: 1°C
Humidity: 66%
Barometer: 1026 hPa
Clouds: Partly Cloudy
Visibility: More than 10 km
Cloud details: Partly Cloudy 2000 ft
LGMT 240920Z 36017KT 9999 SCT020 07/01 Q1026
LGIR - Heraklion
Updated: 24-01-2018 11:20
Mostly Cloudy  
Mostly Cloudy  
   Wind: NNW 46.3 km/h
Wind: NNW 46.3 km/h
Temperature: 11°C
Dew Point: 5°C
Humidity: 67%
Barometer: 1020 hPa
Clouds: Mostly Cloudy
Visibility: More than 10 km
Cloud details: Few Clouds 2000 ft,
Mostly Cloudy 2500 ft
LGIR 240920Z 33025KT 9999 FEW020 BKN025 11/05 Q1020 NOSIG
LGRP - Rhodes
Updated: 24-01-2018 11:20
Few Clouds  
Few Clouds  
   Wind: NNW 9.3 km/h
Wind: NNW 9.3 km/h
Temperature: 13°C
Dew Point: 4°C
Humidity: 55%
Barometer: 1014 hPa
Clouds: Few Clouds
Visibility: More than 10 km
Cloud details: Few Clouds 2000 ft
LGRP 240920Z 34005KT 9999 FEW020 13/04 Q1014 NOSIG
LGKV - Kavala
Updated: 24-01-2018 10:50
Few Clouds  
Few Clouds  
   Wind: ENE 20.4 km/h
Wind: ENE 20.4 km/h
Temperature: 6°C
Wind Chill: 2°C
Dew Point: -6°C
Humidity: 42%
Barometer: 1031 hPa
Clouds: Few Clouds
Visibility: More than 10 km
Cloud details: Few Clouds 2500 ft
LGKV 240850Z 06011KT 9999 FEW025 06/M06 Q1031
LGMK - Mikonos
Updated: 24-01-2018 11:20
Mostly Cloudy  
Mostly Cloudy  
   Wind: North 48.2 km/h<br />Gust to 48.2 km/h
Wind: North 48.2 km/h
Gust to 48.2 km/h
Temperature: 8°C
Wind Chill: 3°C
Dew Point: -3°C
Humidity: 46%
Barometer: 1021 hPa
Clouds: Mostly Cloudy
Visibility: More than 10 km
Cloud details: Few Clouds 2000 ft,
Mostly Cloudy 2500 ft
LGMK 240920Z 36026G36KT 9999 FEW020 BKN025 08/M03 Q1021

Script developed by  Saratoga-weather.org Adapted for the template by  Weerstation Leuven

You find our weather info also at:

UK Metoffice

European Weather Network

WeatherCloud

Weather Underground

AWEKAS

Citizen Weather Observer Program (CWOP)

HAMweather, WeatherForYou, PWS Weather

Equipment we use:

Weather-station
Wireless Vantage Pro2

Weather-program
Weather Display

Wireless Vantage Pro2

Weather Display


Never base important decisions on this or any weather information obtained from the Internet

Kopaida airport (ZZZZ) - CTAF frequency : 119.700 - Tanagra(LGTG) MATZ 120.250

Airport Phone +306977612200, +302268041170, Contact Mr. George Papadopoulos.